Terminal Aerodrome Forecast
Issued by NWS Detroit/Pontiac, MI

Home | Current Version | Previous Version | Text Only | Print | Product List | Glossary On
Versions: 1 2 3 4 5 6 7 8 9 10 11 12 13 14 15 16 17 18 19 20 21
000
FTUS43 KDTX 011138
TAFFNT
TAF
KFNT 011138Z 0112/0212 00000KT 2SM BR SKC
     FM011300 21008KT 3SM BR SCT035
     FM011400 21008KT P6SM SCT035
     FM011900 21008KT P6SM BKN045
     FM020000 20004KT P6SM SCT045
     FM020600 20003KT 4SM BR SKC
     FM020800 00000KT 2SM BR SCT001=

USA.gov is the U.S. government's official web portal to all federal, state and local government web resources and services.